sensor_id;sensor_type;location;lat;lon;timestamp;P1;durP1;ratioP1;P2;durP2;ratioP2
29662;SDS011;16578;53.266;7.920;2022-10-17T00:01:17;7.60;;;3.58;;
29662;SDS011;16578;53.266;7.920;2022-10-17T00:03:43;5.28;;;3.20;;
29662;SDS011;16578;53.266;7.920;2022-10-17T00:06:09;5.03;;;3.00;;
29662;SDS011;16578;53.266;7.920;2022-10-17T00:08:37;4.22;;;2.63;;
29662;SDS011;16578;53.266;7.920;2022-10-17T00:11:05;5.63;;;3.20;;
29662;SDS011;16578;53.266;7.920;2022-10-17T00:13:33;5.28;;;2.80;;
29662;SDS011;16578;53.266;7.920;2022-10-17T00:15:59;5.78;;;2.95;;
29662;SDS011;16578;53.266;7.920;2022-10-17T00:18:25;5.97;;;2.75;;
29662;SDS011;16578;53.266;7.920;2022-10-17T00:20:51;7.10;;;3.10;;
29662;SDS011;16578;53.266;7.920;2022-10-17T00:23:17;7.85;;;3.63;;
29662;SDS011;16578;53.266;7.920;2022-10-17T00:25:43;5.18;;;2.83;;
29662;SDS011;16578;53.266;7.920;2022-10-17T00:28:09;9.70;;;4.03;;
29662;SDS011;16578;53.266;7.920;2022-10-17T00:30:35;7.10;;;3.67;;
29662;SDS011;16578;53.266;7.920;2022-10-17T00:33:01;10.65;;;3.65;;
29662;SDS011;16578;53.266;7.920;2022-10-17T00:35:26;7.43;;;3.80;;
29662;SDS011;16578;53.266;7.920;2022-10-17T00:37:52;9.07;;;3.92;;
29662;SDS011;16578;53.266;7.920;2022-10-17T00:40:17;5.75;;;3.42;;
29662;SDS011;16578;53.266;7.920;2022-10-17T00:42:43;7.43;;;3.53;;
29662;SDS011;16578;53.266;7.920;2022-10-17T00:47:40;7.90;;;3.50;;
29662;SDS011;16578;53.266;7.920;2022-10-17T00:50:08;6.33;;;3.50;;
29662;SDS011;16578;53.266;7.920;2022-10-17T00:52:35;7.05;;;3.33;;
29662;SDS011;16578;53.266;7.920;2022-10-17T00:55:02;6.57;;;3.42;;
29662;SDS011;16578;53.266;7.920;2022-10-17T00:57:40;6.80;;;3.63;;
29662;SDS011;16578;53.266;7.920;2022-10-17T01:00:07;8.18;;;3.58;;
29662;SDS011;16578;53.266;7.920;2022-10-17T01:02:34;7.28;;;3.55;;
29662;SDS011;16578;53.266;7.920;2022-10-17T01:05:00;8.55;;;4.00;;
29662;SDS011;16578;53.266;7.920;2022-10-17T01:07:26;6.80;;;3.78;;
29662;SDS011;16578;53.266;7.920;2022-10-17T01:09:52;9.00;;;4.40;;
29662;SDS011;16578;53.266;7.920;2022-10-17T01:23:23;6.53;;;3.65;;
29662;SDS011;16578;53.266;7.920;2022-10-17T01:26:12;6.20;;;3.55;;
29662;SDS011;16578;53.266;7.920;2022-10-17T01:31:44;10.90;;;3.55;;
29662;SDS011;16578;53.266;7.920;2022-10-17T01:37:07;8.13;;;4.13;;
29662;SDS011;16578;53.266;7.920;2022-10-17T01:40:08;7.60;;;4.10;;
29662;SDS011;16578;53.266;7.920;2022-10-17T01:47:45;7.25;;;3.63;;
29662;SDS011;16578;53.266;7.920;2022-10-17T01:50:14;10.38;;;4.20;;
29662;SDS011;16578;53.266;7.920;2022-10-17T01:52:45;7.35;;;3.78;;
29662;SDS011;16578;53.266;7.920;2022-10-17T01:55:16;7.20;;;3.53;;
29662;SDS011;16578;53.266;7.920;2022-10-17T01:57:47;4.97;;;3.60;;
29662;SDS011;16578;53.266;7.920;2022-10-17T02:00:17;5.95;;;4.03;;
29662;SDS011;16578;53.266;7.920;2022-10-17T02:02:47;7.13;;;3.58;;
29662;SDS011;16578;53.266;7.920;2022-10-17T02:05:16;5.03;;;3.83;;
29662;SDS011;16578;53.266;7.920;2022-10-17T02:07:45;7.32;;;3.95;;
29662;SDS011;16578;53.266;7.920;2022-10-17T02:10:14;4.85;;;3.10;;
29662;SDS011;16578;53.266;7.920;2022-10-17T02:19:22;8.30;;;3.85;;
29662;SDS011;16578;53.266;7.920;2022-10-17T02:21:40;6.65;;;3.28;;
29662;SDS011;16578;53.266;7.920;2022-10-17T02:27:05;7.32;;;3.17;;
29662;SDS011;16578;53.266;7.920;2022-10-17T02:29:37;6.05;;;3.55;;
29662;SDS011;16578;53.266;7.920;2022-10-17T02:32:13;5.75;;;3.38;;
29662;SDS011;16578;53.266;7.920;2022-10-17T02:34:51;3.65;;;2.97;;
29662;SDS011;16578;53.266;7.920;2022-10-17T02:37:21;6.53;;;3.65;;
29662;SDS011;16578;53.266;7.920;2022-10-17T02:39:53;8.30;;;4.22;;
29662;SDS011;16578;53.266;7.920;2022-10-17T02:42:20;5.03;;;3.70;;
29662;SDS011;16578;53.266;7.920;2022-10-17T02:44:48;5.63;;;3.25;;
29662;SDS011;16578;53.266;7.920;2022-10-17T02:47:30;6.28;;;3.47;;
29662;SDS011;16578;53.266;7.920;2022-10-17T02:49:58;3.45;;;3.15;;
29662;SDS011;16578;53.266;7.920;2022-10-17T02:52:33;6.53;;;3.35;;
29662;SDS011;16578;53.266;7.920;2022-10-17T02:55:02;3.45;;;3.15;;
29662;SDS011;16578;53.266;7.920;2022-10-17T02:57:37;6.70;;;3.50;;
29662;SDS011;16578;53.266;7.920;2022-10-17T03:00:07;5.15;;;3.17;;
29662;SDS011;16578;53.266;7.920;2022-10-17T03:02:42;5.50;;;3.50;;
29662;SDS011;16578;53.266;7.920;2022-10-17T03:05:15;6.80;;;3.25;;
29662;SDS011;16578;53.266;7.920;2022-10-17T03:07:49;4.93;;;3.42;;
29662;SDS011;16578;53.266;7.920;2022-10-17T03:10:15;8.25;;;3.72;;
29662;SDS011;16578;53.266;7.920;2022-10-17T03:12:40;5.07;;;3.30;;
29662;SDS011;16578;53.266;7.920;2022-10-17T03:15:06;4.60;;;3.58;;
29662;SDS011;16578;53.266;7.920;2022-10-17T03:17:32;6.00;;;3.60;;
29662;SDS011;16578;53.266;7.920;2022-10-17T03:20:00;3.88;;;3.33;;
29662;SDS011;16578;53.266;7.920;2022-10-17T03:22:26;4.40;;;3.38;;
29662;SDS011;16578;53.266;7.920;2022-10-17T03:24:52;6.40;;;4.13;;
29662;SDS011;16578;53.266;7.920;2022-10-17T03:27:17;5.38;;;3.60;;
29662;SDS011;16578;53.266;7.920;2022-10-17T03:29:43;5.72;;;3.35;;
29662;SDS011;16578;53.266;7.920;2022-10-17T03:32:08;6.65;;;3.50;;
29662;SDS011;16578;53.266;7.920;2022-10-17T03:34:34;9.02;;;3.53;;
29662;SDS011;16578;53.266;7.920;2022-10-17T03:37:00;8.32;;;3.78;;
29662;SDS011;16578;53.266;7.920;2022-10-17T03:39:25;4.82;;;3.25;;
29662;SDS011;16578;53.266;7.920;2022-10-17T03:41:51;5.32;;;3.70;;
29662;SDS011;16578;53.266;7.920;2022-10-17T03:44:16;4.15;;;3.35;;
29662;SDS011;16578;53.266;7.920;2022-10-17T03:46:42;4.63;;;3.38;;
29662;SDS011;16578;53.266;7.920;2022-10-17T03:49:08;4.72;;;3.17;;
29662;SDS011;16578;53.266;7.920;2022-10-17T03:51:33;3.95;;;3.15;;
29662;SDS011;16578;53.266;7.920;2022-10-17T03:54:00;5.55;;;3.50;;
29662;SDS011;16578;53.266;7.920;2022-10-17T03:56:26;4.97;;;3.20;;
29662;SDS011;16578;53.266;7.920;2022-10-17T03:58:52;6.30;;;3.67;;
29662;SDS011;16578;53.266;7.920;2022-10-17T04:01:18;3.40;;;3.10;;
29662;SDS011;16578;53.266;7.920;2022-10-17T04:03:47;3.58;;;3.28;;
29662;SDS011;16578;53.266;7.920;2022-10-17T04:06:16;3.80;;;3.45;;
29662;SDS011;16578;53.266;7.920;2022-10-17T04:08:42;3.88;;;3.47;;
29662;SDS011;16578;53.266;7.920;2022-10-17T04:11:09;4.63;;;3.47;;
29662;SDS011;16578;53.266;7.920;2022-10-17T04:13:37;6.50;;;4.20;;
29662;SDS011;16578;53.266;7.920;2022-10-17T04:16:04;5.68;;;3.70;;
29662;SDS011;16578;53.266;7.920;2022-10-17T04:18:31;4.05;;;3.65;;
29662;SDS011;16578;53.266;7.920;2022-10-17T04:20:57;4.15;;;3.70;;
29662;SDS011;16578;53.266;7.920;2022-10-17T04:23:26;3.90;;;3.60;;
29662;SDS011;16578;53.266;7.920;2022-10-17T04:25:56;5.32;;;3.80;;
29662;SDS011;16578;53.266;7.920;2022-10-17T04:28:22;5.85;;;3.78;;
29662;SDS011;16578;53.266;7.920;2022-10-17T04:30:58;3.78;;;3.40;;
29662;SDS011;16578;53.266;7.920;2022-10-17T04:33:31;4.97;;;3.92;;
29662;SDS011;16578;53.266;7.920;2022-10-17T04:36:02;5.05;;;4.22;;
29662;SDS011;16578;53.266;7.920;2022-10-17T04:38:32;4.70;;;4.30;;
29662;SDS011;16578;53.266;7.920;2022-10-17T04:40:58;6.65;;;4.07;;
29662;SDS011;16578;53.266;7.920;2022-10-17T04:43:29;4.93;;;3.92;;
29662;SDS011;16578;53.266;7.920;2022-10-17T04:45:58;6.07;;;4.53;;
29662;SDS011;16578;53.266;7.920;2022-10-17T04:48:25;5.57;;;4.10;;
29662;SDS011;16578;53.266;7.920;2022-10-17T04:50:53;7.70;;;4.43;;
29662;SDS011;16578;53.266;7.920;2022-10-17T04:53:19;4.88;;;3.90;;
29662;SDS011;16578;53.266;7.920;2022-10-17T04:55:44;5.22;;;4.53;;
29662;SDS011;16578;53.266;7.920;2022-10-17T04:58:10;6.82;;;4.30;;
29662;SDS011;16578;53.266;7.920;2022-10-17T05:00:35;4.30;;;3.88;;
29662;SDS011;16578;53.266;7.920;2022-10-17T05:03:01;5.82;;;4.25;;
29662;SDS011;16578;53.266;7.920;2022-10-17T05:05:26;5.20;;;4.70;;
29662;SDS011;16578;53.266;7.920;2022-10-17T05:07:52;5.97;;;4.45;;
29662;SDS011;16578;53.266;7.920;2022-10-17T05:10:17;6.50;;;4.75;;
29662;SDS011;16578;53.266;7.920;2022-10-17T05:12:43;5.07;;;4.68;;
29662;SDS011;16578;53.266;7.920;2022-10-17T05:15:11;5.43;;;4.53;;
29662;SDS011;16578;53.266;7.920;2022-10-17T05:17:36;5.57;;;4.53;;
29662;SDS011;16578;53.266;7.920;2022-10-17T05:20:02;5.15;;;4.30;;
29662;SDS011;16578;53.266;7.920;2022-10-17T05:22:28;5.82;;;4.70;;
29662;SDS011;16578;53.266;7.920;2022-10-17T05:24:54;7.95;;;4.60;;
29662;SDS011;16578;53.266;7.920;2022-10-17T05:27:19;6.20;;;4.70;;
29662;SDS011;16578;53.266;7.920;2022-10-17T05:29:45;6.43;;;4.97;;
29662;SDS011;16578;53.266;7.920;2022-10-17T05:32:10;5.47;;;4.82;;
29662;SDS011;16578;53.266;7.920;2022-10-17T05:34:36;5.15;;;4.60;;
29662;SDS011;16578;53.266;7.920;2022-10-17T05:37:01;5.20;;;4.70;;
29662;SDS011;16578;53.266;7.920;2022-10-17T05:39:27;7.13;;;5.40;;
29662;SDS011;16578;53.266;7.920;2022-10-17T05:41:52;6.95;;;5.57;;
29662;SDS011;16578;53.266;7.920;2022-10-17T05:44:18;5.68;;;5.13;;
29662;SDS011;16578;53.266;7.920;2022-10-17T05:46:43;7.72;;;5.30;;
29662;SDS011;16578;53.266;7.920;2022-10-17T05:49:09;5.45;;;4.95;;
29662;SDS011;16578;53.266;7.920;2022-10-17T05:51:35;5.95;;;5.20;;
29662;SDS011;16578;53.266;7.920;2022-10-17T05:54:00;7.55;;;5.38;;
29662;SDS011;16578;53.266;7.920;2022-10-17T05:56:26;5.57;;;5.00;;
29662;SDS011;16578;53.266;7.920;2022-10-17T05:58:51;6.50;;;5.40;;
29662;SDS011;16578;53.266;7.920;2022-10-17T06:01:17;6.40;;;5.40;;
29662;SDS011;16578;53.266;7.920;2022-10-17T06:03:43;8.18;;;5.85;;
29662;SDS011;16578;53.266;7.920;2022-10-17T06:06:09;6.15;;;5.55;;
29662;SDS011;16578;53.266;7.920;2022-10-17T06:08:36;5.80;;;5.27;;
29662;SDS011;16578;53.266;7.920;2022-10-17T06:11:02;5.82;;;5.32;;
29662;SDS011;16578;53.266;7.920;2022-10-17T06:13:28;4.88;;;4.47;;
29662;SDS011;16578;53.266;7.920;2022-10-17T06:15:54;6.68;;;5.35;;
29662;SDS011;16578;53.266;7.920;2022-10-17T06:18:19;6.43;;;5.45;;
29662;SDS011;16578;53.266;7.920;2022-10-17T06:20:45;6.93;;;5.13;;
29662;SDS011;16578;53.266;7.920;2022-10-17T06:23:11;5.85;;;5.00;;
29662;SDS011;16578;53.266;7.920;2022-10-17T06:25:36;6.55;;;5.57;;
29662;SDS011;16578;53.266;7.920;2022-10-17T06:28:02;12.85;;;5.80;;
29662;SDS011;16578;53.266;7.920;2022-10-17T06:30:28;6.30;;;5.50;;
29662;SDS011;16578;53.266;7.920;2022-10-17T06:32:54;5.97;;;5.38;;
29662;SDS011;16578;53.266;7.920;2022-10-17T06:35:20;7.03;;;6.03;;
29662;SDS011;16578;53.266;7.920;2022-10-17T06:37:45;6.43;;;5.82;;
29662;SDS011;16578;53.266;7.920;2022-10-17T06:40:11;6.38;;;5.78;;
29662;SDS011;16578;53.266;7.920;2022-10-17T06:42:39;6.70;;;6.00;;
29662;SDS011;16578;53.266;7.920;2022-10-17T06:45:05;6.05;;;5.45;;
29662;SDS011;16578;53.266;7.920;2022-10-17T06:47:32;9.00;;;5.82;;
29662;SDS011;16578;53.266;7.920;2022-10-17T06:49:58;7.38;;;6.20;;
29662;SDS011;16578;53.266;7.920;2022-10-17T06:52:24;6.10;;;5.50;;
29662;SDS011;16578;53.266;7.920;2022-10-17T06:54:49;6.88;;;5.57;;
29662;SDS011;16578;53.266;7.920;2022-10-17T06:57:18;6.00;;;5.43;;
29662;SDS011;16578;53.266;7.920;2022-10-17T06:59:43;6.38;;;5.55;;
29662;SDS011;16578;53.266;7.920;2022-10-17T07:02:09;6.20;;;5.65;;
29662;SDS011;16578;53.266;7.920;2022-10-17T07:04:35;10.10;;;6.20;;
29662;SDS011;16578;53.266;7.920;2022-10-17T07:07:00;8.43;;;6.60;;
29662;SDS011;16578;53.266;7.920;2022-10-17T07:09:27;7.32;;;6.28;;
29662;SDS011;16578;53.266;7.920;2022-10-17T07:11:54;6.95;;;6.22;;
29662;SDS011;16578;53.266;7.920;2022-10-17T07:14:19;6.53;;;5.57;;
29662;SDS011;16578;53.266;7.920;2022-10-17T07:16:45;7.15;;;6.20;;
29662;SDS011;16578;53.266;7.920;2022-10-17T07:19:11;8.07;;;6.68;;
29662;SDS011;16578;53.266;7.920;2022-10-17T07:21:36;7.03;;;6.43;;
29662;SDS011;16578;53.266;7.920;2022-10-17T07:24:02;8.07;;;6.70;;
29662;SDS011;16578;53.266;7.920;2022-10-17T07:26:27;6.68;;;6.10;;
29662;SDS011;16578;53.266;7.920;2022-10-17T07:28:53;7.85;;;6.55;;
29662;SDS011;16578;53.266;7.920;2022-10-17T07:31:20;9.32;;;6.72;;
29662;SDS011;16578;53.266;7.920;2022-10-17T07:33:46;7.47;;;6.20;;
29662;SDS011;16578;53.266;7.920;2022-10-17T07:36:14;8.50;;;6.47;;
29662;SDS011;16578;53.266;7.920;2022-10-17T07:38:40;7.28;;;6.45;;
29662;SDS011;16578;53.266;7.920;2022-10-17T07:41:06;9.05;;;6.72;;
29662;SDS011;16578;53.266;7.920;2022-10-17T07:43:33;10.95;;;6.72;;
29662;SDS011;16578;53.266;7.920;2022-10-17T07:46:00;8.63;;;6.45;;
29662;SDS011;16578;53.266;7.920;2022-10-17T07:48:27;8.10;;;6.47;;
29662;SDS011;16578;53.266;7.920;2022-10-17T07:50:54;10.13;;;6.63;;
29662;SDS011;16578;53.266;7.920;2022-10-17T07:53:19;9.40;;;7.60;;
29662;SDS011;16578;53.266;7.920;2022-10-17T07:55:45;10.85;;;7.50;;
29662;SDS011;16578;53.266;7.920;2022-10-17T07:58:12;11.05;;;7.25;;
29662;SDS011;16578;53.266;7.920;2022-10-17T08:00:38;7.25;;;6.55;;
29662;SDS011;16578;53.266;7.920;2022-10-17T08:03:04;7.20;;;6.50;;
29662;SDS011;16578;53.266;7.920;2022-10-17T08:05:30;8.50;;;6.25;;
29662;SDS011;16578;53.266;7.920;2022-10-17T08:07:57;7.53;;;6.60;;
29662;SDS011;16578;53.266;7.920;2022-10-17T08:10:22;8.15;;;6.82;;
29662;SDS011;16578;53.266;7.920;2022-10-17T08:12:53;7.20;;;6.30;;
29662;SDS011;16578;53.266;7.920;2022-10-17T08:15:19;9.13;;;6.95;;
29662;SDS011;16578;53.266;7.920;2022-10-17T08:17:45;7.35;;;6.00;;
29662;SDS011;16578;53.266;7.920;2022-10-17T08:20:11;7.35;;;6.30;;
29662;SDS011;16578;53.266;7.920;2022-10-17T08:22:36;7.22;;;6.50;;
29662;SDS011;16578;53.266;7.920;2022-10-17T08:25:02;6.72;;;6.00;;
29662;SDS011;16578;53.266;7.920;2022-10-17T08:27:28;10.63;;;6.10;;
29662;SDS011;16578;53.266;7.920;2022-10-17T08:29:56;7.43;;;6.70;;
29662;SDS011;16578;53.266;7.920;2022-10-17T08:32:22;14.48;;;6.57;;
29662;SDS011;16578;53.266;7.920;2022-10-17T08:34:50;7.13;;;6.47;;
29662;SDS011;16578;53.266;7.920;2022-10-17T08:37:16;7.00;;;6.22;;
29662;SDS011;16578;53.266;7.920;2022-10-17T08:39:42;6.88;;;5.80;;
29662;SDS011;16578;53.266;7.920;2022-10-17T08:43:14;8.32;;;6.38;;
29662;SDS011;16578;53.266;7.920;2022-10-17T08:48:01;6.45;;;5.85;;
29662;SDS011;16578;53.266;7.920;2022-10-17T08:53:14;7.22;;;6.38;;
29662;SDS011;16578;53.266;7.920;2022-10-17T08:55:45;6.00;;;5.35;;
29662;SDS011;16578;53.266;7.920;2022-10-17T08:58:28;6.13;;;5.50;;
29662;SDS011;16578;53.266;7.920;2022-10-17T09:01:03;6.80;;;5.20;;
29662;SDS011;16578;53.266;7.920;2022-10-17T09:06:20;8.77;;;6.22;;
29662;SDS011;16578;53.266;7.920;2022-10-17T09:12:09;6.75;;;5.13;;
29662;SDS011;16578;53.266;7.920;2022-10-17T09:17:26;8.45;;;6.10;;
29662;SDS011;16578;53.266;7.920;2022-10-17T09:20:11;5.97;;;5.15;;
29662;SDS011;16578;53.266;7.920;2022-10-17T09:22:47;6.63;;;5.95;;
29662;SDS011;16578;53.266;7.920;2022-10-17T09:25:19;5.97;;;5.32;;
29662;SDS011;16578;53.266;7.920;2022-10-17T09:27:46;5.72;;;5.13;;
29662;SDS011;16578;53.266;7.920;2022-10-17T09:30:27;6.38;;;5.47;;
29662;SDS011;16578;53.266;7.920;2022-10-17T09:32:59;7.15;;;5.90;;
29662;SDS011;16578;53.266;7.920;2022-10-17T09:35:30;19.35;;;7.13;;
29662;SDS011;16578;53.266;7.920;2022-10-17T09:37:56;6.90;;;5.60;;
29662;SDS011;16578;53.266;7.920;2022-10-17T09:40:27;10.45;;;6.15;;
29662;SDS011;16578;53.266;7.920;2022-10-17T09:42:56;8.48;;;5.75;;
29662;SDS011;16578;53.266;7.920;2022-10-17T09:45:25;8.68;;;6.18;;
29662;SDS011;16578;53.266;7.920;2022-10-17T09:47:56;7.40;;;5.78;;
29662;SDS011;16578;53.266;7.920;2022-10-17T09:50:30;5.63;;;5.07;;
29662;SDS011;16578;53.266;7.920;2022-10-17T09:56:04;8.10;;;5.45;;
29662;SDS011;16578;53.266;7.920;2022-10-17T09:58:43;5.65;;;5.07;;
29662;SDS011;16578;53.266;7.920;2022-10-17T10:04:12;7.10;;;5.20;;
29662;SDS011;16578;53.266;7.920;2022-10-17T10:06:39;7.78;;;5.05;;
29662;SDS011;16578;53.266;7.920;2022-10-17T10:09:24;7.07;;;5.25;;
29662;SDS011;16578;53.266;7.920;2022-10-17T10:11:54;5.75;;;4.97;;
29662;SDS011;16578;53.266;7.920;2022-10-17T10:14:22;6.30;;;5.38;;
29662;SDS011;16578;53.266;7.920;2022-10-17T10:16:57;5.43;;;4.80;;
29662;SDS011;16578;53.266;7.920;2022-10-17T10:19:28;8.30;;;5.43;;
29662;SDS011;16578;53.266;7.920;2022-10-17T10:22:05;9.23;;;5.35;;
29662;SDS011;16578;53.266;7.920;2022-10-17T10:24:38;9.90;;;5.70;;
29662;SDS011;16578;53.266;7.920;2022-10-17T10:27:04;7.00;;;5.43;;
29662;SDS011;16578;53.266;7.920;2022-10-17T10:29:37;7.72;;;5.55;;
29662;SDS011;16578;53.266;7.920;2022-10-17T10:34:35;7.18;;;5.75;;
29662;SDS011;16578;53.266;7.920;2022-10-17T10:37:26;6.97;;;5.30;;
29662;SDS011;16578;53.266;7.920;2022-10-17T10:42:44;6.53;;;5.07;;
29662;SDS011;16578;53.266;7.920;2022-10-17T10:47:48;6.80;;;5.78;;
29662;SDS011;16578;53.266;7.920;2022-10-17T10:50:38;7.97;;;5.80;;
29662;SDS011;16578;53.266;7.920;2022-10-17T10:53:30;6.20;;;5.20;;
29662;SDS011;16578;53.266;7.920;2022-10-17T10:56:14;7.85;;;6.05;;
29662;SDS011;16578;53.266;7.920;2022-10-17T10:59:27;7.32;;;5.45;;
29662;SDS011;16578;53.266;7.920;2022-10-17T11:01:54;7.90;;;6.40;;
29662;SDS011;16578;53.266;7.920;2022-10-17T11:07:35;8.25;;;6.13;;
29662;SDS011;16578;53.266;7.920;2022-10-17T11:13:12;6.55;;;5.90;;
29662;SDS011;16578;53.266;7.920;2022-10-17T11:18:21;8.35;;;5.97;;
29662;SDS011;16578;53.266;7.920;2022-10-17T11:26:26;8.95;;;6.95;;
29662;SDS011;16578;53.266;7.920;2022-10-17T11:28:57;7.60;;;6.63;;
29662;SDS011;16578;53.266;7.920;2022-10-17T11:31:28;7.65;;;6.60;;
29662;SDS011;16578;53.266;7.920;2022-10-17T11:33:58;7.57;;;6.60;;
29662;SDS011;16578;53.266;7.920;2022-10-17T11:36:43;7.90;;;6.80;;
29662;SDS011;16578;53.266;7.920;2022-10-17T11:39:14;9.43;;;6.95;;
29662;SDS011;16578;53.266;7.920;2022-10-17T11:41:53;7.70;;;6.80;;
29662;SDS011;16578;53.266;7.920;2022-10-17T11:46:53;7.80;;;7.00;;
29662;SDS011;16578;53.266;7.920;2022-10-17T11:49:23;11.40;;;7.35;;
29662;SDS011;16578;53.266;7.920;2022-10-17T11:55:01;7.63;;;6.90;;
29662;SDS011;16578;53.266;7.920;2022-10-17T12:00:23;10.27;;;8.63;;
29662;SDS011;16578;53.266;7.920;2022-10-17T12:10:46;9.98;;;7.78;;
29662;SDS011;16578;53.266;7.920;2022-10-17T12:15:52;10.30;;;8.80;;
29662;SDS011;16578;53.266;7.920;2022-10-17T12:18:18;9.25;;;8.35;;
29662;SDS011;16578;53.266;7.920;2022-10-17T12:20:57;12.38;;;9.13;;
29662;SDS011;16578;53.266;7.920;2022-10-17T12:23:27;11.50;;;9.43;;
29662;SDS011;16578;53.266;7.920;2022-10-17T12:25:57;9.95;;;8.95;;
29662;SDS011;16578;53.266;7.920;2022-10-17T12:28:32;8.75;;;7.55;;
29662;SDS011;16578;53.266;7.920;2022-10-17T12:31:05;8.80;;;7.90;;
29662;SDS011;16578;53.266;7.920;2022-10-17T12:46:43;7.82;;;7.13;;
29662;SDS011;16578;53.266;7.920;2022-10-17T12:55:05;8.55;;;7.70;;
29662;SDS011;16578;53.266;7.920;2022-10-17T12:57:39;8.15;;;7.43;;
29662;SDS011;16578;53.266;7.920;2022-10-17T13:03:26;9.77;;;7.28;;
29662;SDS011;16578;53.266;7.920;2022-10-17T13:05:59;9.00;;;7.15;;
29662;SDS011;16578;53.266;7.920;2022-10-17T13:08:34;7.32;;;6.63;;
29662;SDS011;16578;53.266;7.920;2022-10-17T13:11:04;7.50;;;6.72;;
29662;SDS011;16578;53.266;7.920;2022-10-17T13:13:35;7.65;;;6.85;;
29662;SDS011;16578;53.266;7.920;2022-10-17T13:16:35;7.85;;;6.45;;
29662;SDS011;16578;53.266;7.920;2022-10-17T13:19:13;6.20;;;5.18;;
29662;SDS011;16578;53.266;7.920;2022-10-17T13:21:54;7.60;;;6.28;;
29662;SDS011;16578;53.266;7.920;2022-10-17T13:24:43;6.20;;;5.32;;
29662;SDS011;16578;53.266;7.920;2022-10-17T13:29:50;6.00;;;4.97;;
29662;SDS011;16578;53.266;7.920;2022-10-17T13:32:16;5.65;;;5.13;;
29662;SDS011;16578;53.266;7.920;2022-10-17T13:34:42;4.97;;;4.47;;
29662;SDS011;16578;53.266;7.920;2022-10-17T13:37:09;6.75;;;4.72;;
29662;SDS011;16578;53.266;7.920;2022-10-17T13:39:42;4.80;;;4.28;;
29662;SDS011;16578;53.266;7.920;2022-10-17T13:42:15;5.15;;;4.70;;
29662;SDS011;16578;53.266;7.920;2022-10-17T13:44:49;4.45;;;4.05;;
29662;SDS011;16578;53.266;7.920;2022-10-17T13:47:22;5.82;;;4.70;;
29662;SDS011;16578;53.266;7.920;2022-10-17T13:49:50;5.93;;;4.88;;
29662;SDS011;16578;53.266;7.920;2022-10-17T13:52:17;4.88;;;4.38;;
29662;SDS011;16578;53.266;7.920;2022-10-17T13:57:16;6.57;;;4.32;;
29662;SDS011;16578;53.266;7.920;2022-10-17T13:59:54;5.83;;;5.20;;
29662;SDS011;16578;53.266;7.920;2022-10-17T14:02:26;6.60;;;5.63;;
29662;SDS011;16578;53.266;7.920;2022-10-17T14:07:36;5.93;;;4.32;;
29662;SDS011;16578;53.266;7.920;2022-10-17T14:10:25;4.88;;;4.38;;
29662;SDS011;16578;53.266;7.920;2022-10-17T14:12:55;6.88;;;4.78;;
29662;SDS011;16578;53.266;7.920;2022-10-17T14:15:25;5.28;;;4.63;;
29662;SDS011;16578;53.266;7.920;2022-10-17T14:17:53;4.10;;;3.70;;
29662;SDS011;16578;53.266;7.920;2022-10-17T14:20:46;7.47;;;4.30;;
29662;SDS011;16578;53.266;7.920;2022-10-17T14:23:30;4.55;;;4.15;;
29662;SDS011;16578;53.266;7.920;2022-10-17T14:26:12;4.72;;;3.88;;
29662;SDS011;16578;53.266;7.920;2022-10-17T14:28:40;4.80;;;3.75;;
29662;SDS011;16578;53.266;7.920;2022-10-17T14:31:32;3.88;;;3.58;;
29662;SDS011;16578;53.266;7.920;2022-10-17T14:33:57;4.50;;;3.78;;
29662;SDS011;16578;53.266;7.920;2022-10-17T14:36:58;6.32;;;3.63;;
29662;SDS011;16578;53.266;7.920;2022-10-17T14:39:17;4.90;;;3.85;;
29662;SDS011;16578;53.266;7.920;2022-10-17T14:41:46;3.78;;;3.47;;
29662;SDS011;16578;53.266;7.920;2022-10-17T14:44:23;3.90;;;3.50;;
29662;SDS011;16578;53.266;7.920;2022-10-17T14:47:03;4.25;;;3.85;;
29662;SDS011;16578;53.266;7.920;2022-10-17T14:49:37;4.97;;;3.40;;
29662;SDS011;16578;53.266;7.920;2022-10-17T14:52:11;7.85;;;3.67;;
29662;SDS011;16578;53.266;7.920;2022-10-17T14:54:50;4.20;;;3.75;;
29662;SDS011;16578;53.266;7.920;2022-10-17T14:59:51;4.25;;;3.85;;
29662;SDS011;16578;53.266;7.920;2022-10-17T15:02:17;4.80;;;4.25;;
29662;SDS011;16578;53.266;7.920;2022-10-17T15:04:43;4.07;;;3.67;;
29662;SDS011;16578;53.266;7.920;2022-10-17T15:07:12;8.48;;;4.13;;
29662;SDS011;16578;53.266;7.920;2022-10-17T15:09:39;4.28;;;3.88;;
29662;SDS011;16578;53.266;7.920;2022-10-17T15:12:06;6.47;;;4.35;;
29662;SDS011;16578;53.266;7.920;2022-10-17T15:14:35;5.20;;;3.63;;
29662;SDS011;16578;53.266;7.920;2022-10-17T15:17:01;5.72;;;3.83;;
29662;SDS011;16578;53.266;7.920;2022-10-17T15:19:26;4.22;;;3.90;;
29662;SDS011;16578;53.266;7.920;2022-10-17T15:21:52;4.32;;;3.92;;
29662;SDS011;16578;53.266;7.920;2022-10-17T15:24:17;4.80;;;4.20;;
29662;SDS011;16578;53.266;7.920;2022-10-17T15:26:43;4.53;;;4.13;;
29662;SDS011;16578;53.266;7.920;2022-10-17T15:29:10;7.30;;;4.45;;
29662;SDS011;16578;53.266;7.920;2022-10-17T15:31:40;4.45;;;4.05;;
29662;SDS011;16578;53.266;7.920;2022-10-17T15:34:05;5.40;;;4.85;;
29662;SDS011;16578;53.266;7.920;2022-10-17T15:36:34;3.58;;;3.22;;
29662;SDS011;16578;53.266;7.920;2022-10-17T15:39:03;3.42;;;3.13;;
29662;SDS011;16578;53.266;7.920;2022-10-17T15:41:30;4.07;;;2.55;;
29662;SDS011;16578;53.266;7.920;2022-10-17T15:43:56;3.38;;;2.20;;
29662;SDS011;16578;53.266;7.920;2022-10-17T15:46:23;2.58;;;2.38;;
29662;SDS011;16578;53.266;7.920;2022-10-17T15:48:51;2.50;;;1.80;;
29662;SDS011;16578;53.266;7.920;2022-10-17T15:51:17;2.35;;;1.77;;
29662;SDS011;16578;53.266;7.920;2022-10-17T15:53:43;1.98;;;1.70;;
29662;SDS011;16578;53.266;7.920;2022-10-17T15:56:22;2.47;;;2.00;;
29662;SDS011;16578;53.266;7.920;2022-10-17T15:58:51;4.10;;;1.70;;
29662;SDS011;16578;53.266;7.920;2022-10-17T16:01:21;1.58;;;1.48;;
29662;SDS011;16578;53.266;7.920;2022-10-17T16:03:50;1.75;;;1.65;;
29662;SDS011;16578;53.266;7.920;2022-10-17T16:06:17;1.75;;;1.60;;
29662;SDS011;16578;53.266;7.920;2022-10-17T16:08:44;1.90;;;1.80;;
29662;SDS011;16578;53.266;7.920;2022-10-17T16:11:13;3.80;;;1.90;;
29662;SDS011;16578;53.266;7.920;2022-10-17T16:13:53;3.15;;;1.88;;
29662;SDS011;16578;53.266;7.920;2022-10-17T16:16:21;2.20;;;1.88;;
29662;SDS011;16578;53.266;7.920;2022-10-17T16:18:46;2.50;;;1.98;;
29662;SDS011;16578;53.266;7.920;2022-10-17T16:21:12;4.95;;;2.80;;
29662;SDS011;16578;53.266;7.920;2022-10-17T16:23:39;4.03;;;2.90;;
29662;SDS011;16578;53.266;7.920;2022-10-17T16:26:05;2.83;;;2.47;;
29662;SDS011;16578;53.266;7.920;2022-10-17T16:28:32;2.53;;;2.08;;
29662;SDS011;16578;53.266;7.920;2022-10-17T16:30:57;2.70;;;2.40;;
29662;SDS011;16578;53.266;7.920;2022-10-17T16:33:23;1.70;;;1.60;;
29662;SDS011;16578;53.266;7.920;2022-10-17T16:35:49;3.47;;;2.05;;
29662;SDS011;16578;53.266;7.920;2022-10-17T16:38:14;3.22;;;1.80;;
29662;SDS011;16578;53.266;7.920;2022-10-17T16:40:40;1.67;;;1.58;;
29662;SDS011;16578;53.266;7.920;2022-10-17T16:43:06;1.42;;;1.30;;
29662;SDS011;16578;53.266;7.920;2022-10-17T16:48:00;4.32;;;1.80;;
29662;SDS011;16578;53.266;7.920;2022-10-17T16:50:25;11.25;;;2.00;;
29662;SDS011;16578;53.266;7.920;2022-10-17T16:52:51;2.03;;;1.40;;
29662;SDS011;16578;53.266;7.920;2022-10-17T16:55:16;1.60;;;1.50;;
29662;SDS011;16578;53.266;7.920;2022-10-17T16:57:43;1.48;;;1.38;;
29662;SDS011;16578;53.266;7.920;2022-10-17T17:00:09;2.10;;;1.67;;
29662;SDS011;16578;53.266;7.920;2022-10-17T17:02:36;1.92;;;1.80;;
29662;SDS011;16578;53.266;7.920;2022-10-17T17:05:01;2.10;;;1.75;;
29662;SDS011;16578;53.266;7.920;2022-10-17T17:07:27;2.88;;;2.25;;
29662;SDS011;16578;53.266;7.920;2022-10-17T17:09:53;2.45;;;2.03;;
29662;SDS011;16578;53.266;7.920;2022-10-17T17:12:20;3.00;;;2.38;;